Peace River, Canada
Current Conditions -  °F | °C
As of 1:00 AM on Saturday 20 Dec 2014 (Local Time) from CYPE Reporting Station
Clear Clear  
Wind Chill:   Ceiling: Unl
Heat Index:   Visibility: 15mi
Dew Point:   Wind: 3mph
Humidity: 85%   Direction: 250°WSW
Pressure: 29.61"   Gusts: NA
Location:  56.23°N, 117.29°W
Report Text: CYPE 200800Z 25003KT 15SM SKC M15/M17 A2961 RMK FROIN SLP069
Loading
Personal Weather Stations






























Interactive Weather Map New forecast layout! Learn more

10-Day Weather Forecast

Advertisements
Track Severe Weather on mobile